createdAt,value
2022-11-15T08:33:56.361Z,28.27
2022-11-15T08:36:45.905Z,31.50
2022-11-15T08:39:31.852Z,28.55
2022-11-15T08:42:20.047Z,29.92
2022-11-15T08:45:06.715Z,30.40
2022-11-15T08:47:54.396Z,31.05
2022-11-15T08:50:39.901Z,29.30
2022-11-15T08:53:25.651Z,27.42
2022-11-15T08:56:15.966Z,29.15
2022-11-15T08:59:01.652Z,30.17
2022-11-15T09:01:47.314Z,28.88
2022-11-15T09:04:33.286Z,31.75
2022-11-15T09:07:21.724Z,31.10
2022-11-15T09:10:07.547Z,30.85
2022-11-15T09:12:58.538Z,31.35
2022-11-15T09:15:44.227Z,30.55
2022-11-15T09:18:30.370Z,31.25
2022-11-15T09:21:18.822Z,31.77
2022-11-15T09:24:05.317Z,31.05
2022-11-15T09:26:52.320Z,32.35
2022-11-15T09:29:37.911Z,31.13
2022-11-15T09:32:24.532Z,36.35
2022-11-15T09:35:10.319Z,30.60
2022-11-15T09:37:57.844Z,34.38
2022-11-15T09:40:43.195Z,34.83
2022-11-15T09:43:52.017Z,34.85
2022-11-15T09:47:02.152Z,34.72
2022-11-15T09:49:58.706Z,35.28
2022-11-15T09:52:34.560Z,38.92
2022-11-15T09:55:01.517Z,34.25
2022-11-15T09:57:53.517Z,32.17
2022-11-15T10:00:48.744Z,31.00
2022-11-15T10:03:19.132Z,29.65
2022-11-15T10:05:51.582Z,29.77
2022-11-15T10:08:27.801Z,28.23
2022-11-15T10:11:30.631Z,29.98
2022-11-15T10:13:52.566Z,28.05
2022-11-15T10:16:48.307Z,29.10
2022-11-15T10:19:39.680Z,28.77
2022-11-15T10:22:36.201Z,28.08
2022-11-15T10:25:18.239Z,31.83
2022-11-15T10:28:07.161Z,28.93
2022-11-15T10:30:38.661Z,29.85
2022-11-15T10:33:35.857Z,31.85
2022-11-15T10:36:09.586Z,31.30
2022-11-15T10:38:51.443Z,30.65
2022-11-15T10:41:30.610Z,30.17
2022-11-15T10:44:21.581Z,30.17
2022-11-15T10:47:07.752Z,31.58
2022-11-15T10:49:35.857Z,36.58
2022-11-15T10:52:21.656Z,35.83
2022-11-15T10:54:58.065Z,36.13
2022-11-15T10:57:34.717Z,38.67
2022-11-15T11:00:20.199Z,37.20
2022-11-15T11:02:57.697Z,36.65
2022-11-15T11:06:04.447Z,35.78
2022-11-15T11:08:31.596Z,37.13
2022-11-15T11:11:03.962Z,37.90
2022-11-15T11:13:32.402Z,36.15
2022-11-15T11:16:21.083Z,35.40
2022-11-15T11:19:31.639Z,38.03
2022-11-15T11:22:26.671Z,32.30
2022-11-15T11:25:01.481Z,33.78
2022-11-15T11:27:47.019Z,38.67
2022-11-15T11:30:52.958Z,32.85
2022-11-15T11:33:33.677Z,33.15
2022-11-15T11:36:19.331Z,31.55
2022-11-15T11:39:01.522Z,37.83
2022-11-15T11:41:50.324Z,32.60
2022-11-15T11:44:20.347Z,31.85
2022-11-15T11:46:59.913Z,31.65
2022-11-15T11:49:54.606Z,34.65
2022-11-15T11:53:12.584Z,32.95
2022-11-15T11:55:53.608Z,33.83
2022-11-15T11:58:34.882Z,33.15
2022-11-15T12:01:30.176Z,31.42
2022-11-15T12:04:10.797Z,29.35
2022-11-15T12:06:50.692Z,25.90
2022-11-15T12:09:42.396Z,25.83
2022-11-15T12:12:32.805Z,25.38
2022-11-15T12:15:15.642Z,26.60
2022-11-15T12:20:18.225Z,25.45
2022-11-15T12:22:56.995Z,22.77
2022-11-15T12:25:28.592Z,23.65
2022-11-15T12:28:29.220Z,24.90
2022-11-15T12:31:21.565Z,21.75
2022-11-15T12:33:49.940Z,24.17
2022-11-15T12:36:22.846Z,22.65
2022-11-15T12:39:01.369Z,24.50
2022-11-15T12:41:42.325Z,24.48
2022-11-15T12:44:14.478Z,26.42
2022-11-15T12:46:47.033Z,25.40
2022-11-15T12:49:29.178Z,26.77
2022-11-15T12:51:58.972Z,25.10
2022-11-15T12:54:25.850Z,24.90
2022-11-15T12:57:04.661Z,23.88
2022-11-15T13:00:25.371Z,21.77
2022-11-15T13:03:20.441Z,24.48
2022-11-15T13:05:54.295Z,25.75
2022-11-15T13:08:38.635Z,25.35
2022-11-15T13:11:45.540Z,23.60
2022-11-15T13:14:46.516Z,24.83
2022-11-15T13:17:48.654Z,25.10
2022-11-15T13:20:15.553Z,24.83
2022-11-15T13:22:52.743Z,25.67
2022-11-15T19:00:37.943Z,37.08
2022-11-15T19:03:04.825Z,41.25
2022-11-15T19:05:31.655Z,39.67
2022-11-15T19:07:58.418Z,39.83
2022-11-15T19:10:25.842Z,40.10
2022-11-15T19:12:52.656Z,38.83
2022-11-15T19:15:19.495Z,41.33
2022-11-15T19:17:46.347Z,37.72
2022-11-15T19:20:13.119Z,39.47
2022-11-15T19:22:42.606Z,37.95
2022-11-15T19:25:10.849Z,39.15
2022-11-15T19:27:38.325Z,38.33
2022-11-15T19:30:05.804Z,37.95
2022-11-15T19:32:32.606Z,37.65
2022-11-15T19:34:59.500Z,38.50
2022-11-15T19:37:26.418Z,36.97
2022-11-15T19:39:53.204Z,38.08
2022-11-15T19:42:20.038Z,38.45
2022-11-15T19:44:46.934Z,37.85
2022-11-15T19:47:16.635Z,37.17
2022-11-15T19:49:43.599Z,35.75
2022-11-15T19:52:10.424Z,38.65
2022-11-15T19:54:37.261Z,38.10
2022-11-15T19:57:04.173Z,37.92
2022-11-15T19:59:30.986Z,38.15
2022-11-15T20:01:57.818Z,37.92
2022-11-15T20:04:24.596Z,37.33
2022-11-15T20:06:51.434Z,38.95
2022-11-15T20:09:18.476Z,38.30
2022-11-15T20:11:45.600Z,37.70
2022-11-15T20:14:13.245Z,38.92
2022-11-15T20:16:40.354Z,37.60
2022-11-15T20:19:08.755Z,37.55
2022-11-15T20:21:36.186Z,39.63
2022-11-15T20:24:03.442Z,39.42
2022-11-15T20:26:32.245Z,39.85
2022-11-15T20:29:03.956Z,41.22
2022-11-15T20:31:31.660Z,41.65
2022-11-15T20:33:59.280Z,40.65
2022-11-15T20:36:26.611Z,40.72
2022-11-15T20:38:58.863Z,40.78
2022-11-15T20:41:27.777Z,39.70
2022-11-15T20:43:56.094Z,40.08
2022-11-15T20:46:24.201Z,39.22
2022-11-15T20:48:52.326Z,41.63
2022-11-15T20:51:21.127Z,42.13
2022-11-15T20:53:50.021Z,37.55
2022-11-15T20:56:22.947Z,39.13
2022-11-15T20:58:51.707Z,39.10
2022-11-15T21:01:24.595Z,39.45
2022-11-15T21:03:57.151Z,39.83
2022-11-15T21:06:26.728Z,39.45
2022-11-15T21:09:14.932Z,41.40
2022-11-15T21:12:06.192Z,42.38
2022-11-15T21:14:34.093Z,39.88
2022-11-15T21:17:02.187Z,40.72
2022-11-15T21:19:35.591Z,41.40
2022-11-15T21:22:05.334Z,42.42
2022-11-15T21:24:33.076Z,40.75
2022-11-15T21:27:00.103Z,41.45
2022-11-15T21:29:28.433Z,41.83
2022-11-15T21:31:55.376Z,39.50
2022-11-15T21:34:22.264Z,39.95
2022-11-15T21:36:49.058Z,37.90
2022-11-15T21:39:17.269Z,36.70
2022-11-15T21:41:46.397Z,37.03
2022-11-15T21:44:13.150Z,36.40
2022-11-15T21:46:40.075Z,34.83
2022-11-15T21:49:07.107Z,37.10
2022-11-15T21:51:34.070Z,35.55
2022-11-15T21:54:01.696Z,35.70
2022-11-15T21:56:29.503Z,35.13
2022-11-15T21:58:56.712Z,36.20
2022-11-15T22:01:43.598Z,38.05
2022-11-15T22:04:10.511Z,38.42
